sensor_id;sensor_type;location;lat;lon;timestamp;P1;durP1;ratioP1;P2;durP2;ratioP2
69951;SDS011;60406;48.408;13.392;2022-09-13T00:01:56;12.65;;;8.82;;
69951;SDS011;60406;48.408;13.392;2022-09-13T00:06:57;18.90;;;11.18;;
69951;SDS011;60406;48.408;13.392;2022-09-13T00:11:57;15.27;;;8.93;;
69951;SDS011;60406;48.408;13.392;2022-09-13T00:16:58;11.63;;;8.90;;
69951;SDS011;60406;48.408;13.392;2022-09-13T00:21:59;21.67;;;7.70;;
69951;SDS011;60406;48.408;13.392;2022-09-13T00:27:00;60.35;;;9.43;;
69951;SDS011;60406;48.408;13.392;2022-09-13T00:32:01;12.90;;;8.35;;
69951;SDS011;60406;48.408;13.392;2022-09-13T00:37:02;11.15;;;7.78;;
69951;SDS011;60406;48.408;13.392;2022-09-13T00:42:03;11.07;;;8.20;;
69951;SDS011;60406;48.408;13.392;2022-09-13T00:47:04;9.23;;;7.40;;
69951;SDS011;60406;48.408;13.392;2022-09-13T00:52:06;8.07;;;6.97;;
69951;SDS011;60406;48.408;13.392;2022-09-13T00:57:09;9.57;;;7.43;;
69951;SDS011;60406;48.408;13.392;2022-09-13T01:02:11;36.95;;;8.23;;
69951;SDS011;60406;48.408;13.392;2022-09-13T01:07:12;81.28;;;12.85;;
69951;SDS011;60406;48.408;13.392;2022-09-13T01:12:16;14.18;;;10.45;;
69951;SDS011;60406;48.408;13.392;2022-09-13T01:17:21;14.02;;;10.32;;
69951;SDS011;60406;48.408;13.392;2022-09-13T01:38:18;85.72;;;12.75;;
69951;SDS011;60406;48.408;13.392;2022-09-13T01:43:46;63.22;;;12.48;;
69951;SDS011;60406;48.408;13.392;2022-09-13T01:49:20;53.70;;;12.98;;
69951;SDS011;60406;48.408;13.392;2022-09-13T01:54:46;59.67;;;9.10;;
69951;SDS011;60406;48.408;13.392;2022-09-13T02:00:14;29.92;;;8.63;;
69951;SDS011;60406;48.408;13.392;2022-09-13T02:05:17;49.38;;;9.48;;
69951;SDS011;60406;48.408;13.392;2022-09-13T02:10:31;24.55;;;8.90;;
69951;SDS011;60406;48.408;13.392;2022-09-13T02:15:35;62.55;;;10.45;;
69951;SDS011;60406;48.408;13.392;2022-09-13T02:20:40;90.55;;;11.13;;
69951;SDS011;60406;48.408;13.392;2022-09-13T02:25:42;86.97;;;12.07;;
69951;SDS011;60406;48.408;13.392;2022-09-13T02:30:45;128.57;;;12.85;;
69951;SDS011;60406;48.408;13.392;2022-09-13T02:35:52;87.38;;;14.40;;
69951;SDS011;60406;48.408;13.392;2022-09-13T02:40:56;92.45;;;12.35;;
69951;SDS011;60406;48.408;13.392;2022-09-13T02:51:07;68.25;;;11.95;;
69951;SDS011;60406;48.408;13.392;2022-09-13T02:56:22;23.75;;;10.63;;
69951;SDS011;60406;48.408;13.392;2022-09-13T03:01:27;46.22;;;11.45;;
69951;SDS011;60406;48.408;13.392;2022-09-13T03:06:28;54.92;;;12.55;;
69951;SDS011;60406;48.408;13.392;2022-09-13T03:27:29;91.38;;;12.32;;
69951;SDS011;60406;48.408;13.392;2022-09-13T03:37:58;134.82;;;14.50;;
69951;SDS011;60406;48.408;13.392;2022-09-13T03:43:05;218.82;;;16.90;;
69951;SDS011;60406;48.408;13.392;2022-09-13T03:48:10;310.42;;;17.77;;
69951;SDS011;60406;48.408;13.392;2022-09-13T03:53:12;169.18;;;16.17;;
69951;SDS011;60406;48.408;13.392;2022-09-13T03:58:20;13.30;;;10.25;;
69951;SDS011;60406;48.408;13.392;2022-09-13T04:03:21;10.98;;;9.52;;
69951;SDS011;60406;48.408;13.392;2022-09-13T04:08:22;10.38;;;9.18;;
69951;SDS011;60406;48.408;13.392;2022-09-13T04:13:23;11.10;;;9.20;;
69951;SDS011;60406;48.408;13.392;2022-09-13T04:18:24;10.30;;;9.27;;
69951;SDS011;60406;48.408;13.392;2022-09-13T04:23:25;21.08;;;8.73;;
69951;SDS011;60406;48.408;13.392;2022-09-13T04:28:27;16.38;;;8.45;;
69951;SDS011;60406;48.408;13.392;2022-09-13T04:33:28;21.67;;;9.70;;
69951;SDS011;60406;48.408;13.392;2022-09-13T04:38:28;20.98;;;9.60;;
69951;SDS011;60406;48.408;13.392;2022-09-13T04:43:29;83.57;;;9.35;;
69951;SDS011;60406;48.408;13.392;2022-09-13T04:48:30;223.93;;;12.20;;
69951;SDS011;60406;48.408;13.392;2022-09-13T04:53:31;70.50;;;9.55;;
69951;SDS011;60406;48.408;13.392;2022-09-13T04:58:32;176.48;;;9.82;;
69951;SDS011;60406;48.408;13.392;2022-09-13T05:03:34;180.13;;;9.98;;
69951;SDS011;60406;48.408;13.392;2022-09-13T05:08:35;194.68;;;11.90;;
69951;SDS011;60406;48.408;13.392;2022-09-13T05:13:36;101.13;;;9.23;;
69951;SDS011;60406;48.408;13.392;2022-09-13T05:18:37;116.35;;;8.70;;
69951;SDS011;60406;48.408;13.392;2022-09-13T05:23:38;59.97;;;8.13;;
69951;SDS011;60406;48.408;13.392;2022-09-13T05:28:39;79.75;;;7.55;;
69951;SDS011;60406;48.408;13.392;2022-09-13T05:33:40;68.43;;;7.40;;
69951;SDS011;60406;48.408;13.392;2022-09-13T05:38:41;127.50;;;11.15;;
69951;SDS011;60406;48.408;13.392;2022-09-13T05:43:42;121.55;;;10.50;;
69951;SDS011;60406;48.408;13.392;2022-09-13T05:48:42;147.77;;;12.25;;
69951;SDS011;60406;48.408;13.392;2022-09-13T05:53:47;133.60;;;11.88;;
69951;SDS011;60406;48.408;13.392;2022-09-13T05:58:51;127.95;;;10.77;;
69951;SDS011;60406;48.408;13.392;2022-09-13T06:03:54;123.65;;;11.93;;
69951;SDS011;60406;48.408;13.392;2022-09-13T06:08:58;101.07;;;12.27;;
69951;SDS011;60406;48.408;13.392;2022-09-13T06:13:59;207.80;;;16.92;;
69951;SDS011;60406;48.408;13.392;2022-09-13T06:19:00;176.75;;;13.77;;
69951;SDS011;60406;48.408;13.392;2022-09-13T06:24:01;271.63;;;16.58;;
69951;SDS011;60406;48.408;13.392;2022-09-13T06:29:02;111.25;;;12.70;;
69951;SDS011;60406;48.408;13.392;2022-09-13T06:34:03;192.63;;;16.15;;
69951;SDS011;60406;48.408;13.392;2022-09-13T06:39:03;183.98;;;16.98;;
69951;SDS011;60406;48.408;13.392;2022-09-13T06:44:04;216.60;;;17.73;;
69951;SDS011;60406;48.408;13.392;2022-09-13T06:49:06;134.02;;;16.13;;
69951;SDS011;60406;48.408;13.392;2022-09-13T06:54:07;231.77;;;18.90;;
69951;SDS011;60406;48.408;13.392;2022-09-13T06:59:08;129.63;;;17.48;;
69951;SDS011;60406;48.408;13.392;2022-09-13T07:04:10;170.70;;;20.33;;
69951;SDS011;60406;48.408;13.392;2022-09-13T07:09:13;166.48;;;21.35;;
69951;SDS011;60406;48.408;13.392;2022-09-13T07:14:19;153.63;;;19.33;;
69951;SDS011;60406;48.408;13.392;2022-09-13T07:19:25;85.97;;;19.00;;
69951;SDS011;60406;48.408;13.392;2022-09-13T07:24:26;71.07;;;20.05;;
69951;SDS011;60406;48.408;13.392;2022-09-13T07:29:27;26.58;;;19.38;;
69951;SDS011;60406;48.408;13.392;2022-09-13T07:34:28;132.88;;;19.52;;
69951;SDS011;60406;48.408;13.392;2022-09-13T07:39:29;38.67;;;18.70;;
69951;SDS011;60406;48.408;13.392;2022-09-13T07:44:30;31.13;;;19.65;;
69951;SDS011;60406;48.408;13.392;2022-09-13T07:49:31;29.98;;;19.02;;
69951;SDS011;60406;48.408;13.392;2022-09-13T07:54:32;20.05;;;17.85;;
69951;SDS011;60406;48.408;13.392;2022-09-13T07:59:32;19.88;;;17.83;;
69951;SDS011;60406;48.408;13.392;2022-09-13T08:04:33;20.85;;;17.02;;
69951;SDS011;60406;48.408;13.392;2022-09-13T08:09:34;18.02;;;16.23;;
69951;SDS011;60406;48.408;13.392;2022-09-13T08:14:35;18.00;;;16.10;;
69951;SDS011;60406;48.408;13.392;2022-09-13T08:19:36;16.83;;;15.18;;
69951;SDS011;60406;48.408;13.392;2022-09-13T08:24:37;17.85;;;15.95;;
69951;SDS011;60406;48.408;13.392;2022-09-13T08:29:38;17.45;;;15.73;;
69951;SDS011;60406;48.408;13.392;2022-09-13T08:34:38;17.90;;;16.08;;
69951;SDS011;60406;48.408;13.392;2022-09-13T08:39:39;18.23;;;16.42;;
69951;SDS011;60406;48.408;13.392;2022-09-13T08:44:47;18.25;;;16.40;;
69951;SDS011;60406;48.408;13.392;2022-09-13T08:49:51;19.02;;;17.05;;
69951;SDS011;60406;48.408;13.392;2022-09-13T08:55:22;19.52;;;17.60;;
69951;SDS011;60406;48.408;13.392;2022-09-13T09:00:48;19.83;;;17.83;;
69951;SDS011;60406;48.408;13.392;2022-09-13T09:05:49;18.52;;;16.75;;
69951;SDS011;60406;48.408;13.392;2022-09-13T09:10:51;25.00;;;17.42;;
69951;SDS011;60406;48.408;13.392;2022-09-13T09:15:54;16.85;;;15.25;;
69951;SDS011;60406;48.408;13.392;2022-09-13T09:20:58;16.13;;;14.63;;
69951;SDS011;60406;48.408;13.392;2022-09-13T09:41:56;12.20;;;10.98;;
69951;SDS011;60406;48.408;13.392;2022-09-13T09:46:59;11.05;;;9.98;;
69951;SDS011;60406;48.408;13.392;2022-09-13T09:52:03;11.02;;;9.95;;
69951;SDS011;60406;48.408;13.392;2022-09-13T09:57:05;10.63;;;9.52;;
69951;SDS011;60406;48.408;13.392;2022-09-13T10:02:12;11.68;;;9.60;;
69951;SDS011;60406;48.408;13.392;2022-09-13T10:07:30;10.30;;;9.30;;
69951;SDS011;60406;48.408;13.392;2022-09-13T10:12:34;11.35;;;9.43;;
69951;SDS011;60406;48.408;13.392;2022-09-13T10:17:36;10.55;;;8.52;;
69951;SDS011;60406;48.408;13.392;2022-09-13T10:22:37;9.95;;;7.47;;
69951;SDS011;60406;48.408;13.392;2022-09-13T10:27:38;7.32;;;6.60;;
69951;SDS011;60406;48.408;13.392;2022-09-13T10:32:41;8.00;;;7.15;;
69951;SDS011;60406;48.408;13.392;2022-09-13T10:37:43;6.88;;;6.22;;
69951;SDS011;60406;48.408;13.392;2022-09-13T10:42:51;7.97;;;6.55;;
69951;SDS011;60406;48.408;13.392;2022-09-13T10:47:54;6.15;;;5.63;;
69951;SDS011;60406;48.408;13.392;2022-09-13T10:52:59;6.80;;;5.60;;
69951;SDS011;60406;48.408;13.392;2022-09-13T11:30:30;3.72;;;3.00;;
69951;SDS011;60406;48.408;13.392;2022-09-13T11:46:26;2.65;;;1.80;;
69951;SDS011;60406;48.408;13.392;2022-09-13T11:51:40;3.08;;;2.10;;
69951;SDS011;60406;48.408;13.392;2022-09-13T11:56:49;7.93;;;2.08;;
69951;SDS011;60406;48.408;13.392;2022-09-13T12:01:56;2.65;;;1.95;;
69951;SDS011;60406;48.408;13.392;2022-09-13T12:07:00;4.53;;;2.63;;
69951;SDS011;60406;48.408;13.392;2022-09-13T12:12:07;3.95;;;1.92;;
69951;SDS011;60406;48.408;13.392;2022-09-13T12:17:26;3.70;;;1.92;;
69951;SDS011;60406;48.408;13.392;2022-09-13T12:22:31;2.20;;;2.00;;
69951;SDS011;60406;48.408;13.392;2022-09-13T12:32:37;3.40;;;2.13;;
69951;SDS011;60406;48.408;13.392;2022-09-13T12:54:07;5.68;;;2.08;;
69951;SDS011;60406;48.408;13.392;2022-09-13T12:59:37;4.53;;;2.20;;
69951;SDS011;60406;48.408;13.392;2022-09-13T13:04:44;5.30;;;1.75;;
69951;SDS011;60406;48.408;13.392;2022-09-13T13:09:51;3.58;;;2.30;;
69951;SDS011;60406;48.408;13.392;2022-09-13T13:14:53;2.25;;;1.92;;
69951;SDS011;60406;48.408;13.392;2022-09-13T13:19:54;3.85;;;2.00;;
69951;SDS011;60406;48.408;13.392;2022-09-13T13:24:54;3.10;;;2.20;;
69951;SDS011;60406;48.408;13.392;2022-09-13T13:30:32;3.72;;;2.25;;
69951;SDS011;60406;48.408;13.392;2022-09-13T13:35:33;3.90;;;2.55;;
69951;SDS011;60406;48.408;13.392;2022-09-13T13:40:34;6.03;;;2.75;;
69951;SDS011;60406;48.408;13.392;2022-09-13T13:45:35;3.22;;;2.92;;
69951;SDS011;60406;48.408;13.392;2022-09-13T13:51:11;2.83;;;2.38;;
69951;SDS011;60406;48.408;13.392;2022-09-13T13:56:21;6.57;;;2.47;;
69951;SDS011;60406;48.408;13.392;2022-09-13T14:01:31;9.55;;;2.63;;
69951;SDS011;60406;48.408;13.392;2022-09-13T14:06:36;5.50;;;3.05;;
69951;SDS011;60406;48.408;13.392;2022-09-13T14:23:09;5.50;;;2.88;;
69951;SDS011;60406;48.408;13.392;2022-09-13T14:28:21;3.55;;;3.25;;
69951;SDS011;60406;48.408;13.392;2022-09-13T14:38:28;3.58;;;2.67;;
69951;SDS011;60406;48.408;13.392;2022-09-13T14:43:31;5.05;;;2.67;;
69951;SDS011;60406;48.408;13.392;2022-09-13T14:48:35;2.65;;;2.45;;
69951;SDS011;60406;48.408;13.392;2022-09-13T14:53:39;7.50;;;2.30;;
69951;SDS011;60406;48.408;13.392;2022-09-13T14:58:47;3.75;;;3.40;;
69951;SDS011;60406;48.408;13.392;2022-09-13T15:03:49;6.07;;;3.72;;
69951;SDS011;60406;48.408;13.392;2022-09-13T15:08:51;4.90;;;3.97;;
69951;SDS011;60406;48.408;13.392;2022-09-13T15:14:02;4.82;;;4.40;;
69951;SDS011;60406;48.408;13.392;2022-09-13T15:19:27;7.60;;;3.83;;
69951;SDS011;60406;48.408;13.392;2022-09-13T15:24:29;5.00;;;3.70;;
69951;SDS011;60406;48.408;13.392;2022-09-13T15:29:31;5.43;;;3.42;;
69951;SDS011;60406;48.408;13.392;2022-09-13T15:34:32;4.68;;;3.63;;
69951;SDS011;60406;48.408;13.392;2022-09-13T15:39:43;3.97;;;3.60;;
69951;SDS011;60406;48.408;13.392;2022-09-13T15:44:50;5.45;;;3.70;;
69951;SDS011;60406;48.408;13.392;2022-09-13T15:49:51;5.05;;;4.22;;
69951;SDS011;60406;48.408;13.392;2022-09-13T15:54:52;4.30;;;3.90;;
69951;SDS011;60406;48.408;13.392;2022-09-13T15:59:53;4.90;;;4.40;;
69951;SDS011;60406;48.408;13.392;2022-09-13T16:04:54;4.90;;;4.28;;
69951;SDS011;60406;48.408;13.392;2022-09-13T16:09:55;7.00;;;4.10;;
69951;SDS011;60406;48.408;13.392;2022-09-13T16:14:56;4.93;;;4.07;;
69951;SDS011;60406;48.408;13.392;2022-09-13T16:19:57;5.20;;;4.50;;
69951;SDS011;60406;48.408;13.392;2022-09-13T16:24:58;15.63;;;5.05;;
69951;SDS011;60406;48.408;13.392;2022-09-13T16:29:59;5.18;;;4.68;;
69951;SDS011;60406;48.408;13.392;2022-09-13T16:35:00;6.95;;;5.05;;
69951;SDS011;60406;48.408;13.392;2022-09-13T16:40:00;5.43;;;4.90;;
69951;SDS011;60406;48.408;13.392;2022-09-13T16:45:02;5.40;;;4.90;;
69951;SDS011;60406;48.408;13.392;2022-09-13T16:50:03;8.57;;;5.95;;
69951;SDS011;60406;48.408;13.392;2022-09-13T16:55:05;7.47;;;5.25;;
69951;SDS011;60406;48.408;13.392;2022-09-13T17:00:07;7.88;;;4.72;;
69951;SDS011;60406;48.408;13.392;2022-09-13T17:05:08;7.10;;;5.00;;
69951;SDS011;60406;48.408;13.392;2022-09-13T17:10:09;7.28;;;5.03;;
69951;SDS011;60406;48.408;13.392;2022-09-13T17:15:10;6.03;;;5.03;;
69951;SDS011;60406;48.408;13.392;2022-09-13T17:20:11;8.73;;;5.70;;
69951;SDS011;60406;48.408;13.392;2022-09-13T17:25:12;7.43;;;5.72;;
69951;SDS011;60406;48.408;13.392;2022-09-13T17:30:13;6.07;;;5.47;;
69951;SDS011;60406;48.408;13.392;2022-09-13T17:35:14;7.13;;;5.13;;
69951;SDS011;60406;48.408;13.392;2022-09-13T17:40:15;6.38;;;5.68;;
69951;SDS011;60406;48.408;13.392;2022-09-13T17:45:16;10.88;;;6.38;;
69951;SDS011;60406;48.408;13.392;2022-09-13T17:50:16;6.70;;;5.90;;
69951;SDS011;60406;48.408;13.392;2022-09-13T17:55:17;11.57;;;5.25;;
69951;SDS011;60406;48.408;13.392;2022-09-13T18:00:18;8.15;;;5.78;;
69951;SDS011;60406;48.408;13.392;2022-09-13T18:05:19;7.72;;;6.03;;
69951;SDS011;60406;48.408;13.392;2022-09-13T18:10:20;8.27;;;6.18;;
69951;SDS011;60406;48.408;13.392;2022-09-13T18:15:21;5.70;;;5.20;;
69951;SDS011;60406;48.408;13.392;2022-09-13T18:20:23;7.55;;;5.63;;
69951;SDS011;60406;48.408;13.392;2022-09-13T18:25:24;11.70;;;5.80;;
69951;SDS011;60406;48.408;13.392;2022-09-13T18:30:25;7.07;;;6.38;;
69951;SDS011;60406;48.408;13.392;2022-09-13T18:35:25;8.30;;;6.25;;
69951;SDS011;60406;48.408;13.392;2022-09-13T18:40:26;11.60;;;6.55;;
69951;SDS011;60406;48.408;13.392;2022-09-13T18:45:27;8.75;;;6.05;;
69951;SDS011;60406;48.408;13.392;2022-09-13T18:50:28;11.63;;;6.82;;
69951;SDS011;60406;48.408;13.392;2022-09-13T18:55:29;11.63;;;6.15;;
69951;SDS011;60406;48.408;13.392;2022-09-13T19:00:30;8.70;;;7.35;;
69951;SDS011;60406;48.408;13.392;2022-09-13T19:05:31;8.98;;;8.07;;
69951;SDS011;60406;48.408;13.392;2022-09-13T19:10:33;10.55;;;7.00;;
69951;SDS011;60406;48.408;13.392;2022-09-13T19:15:34;10.45;;;8.35;;
69951;SDS011;60406;48.408;13.392;2022-09-13T19:20:35;9.32;;;8.35;;
69951;SDS011;60406;48.408;13.392;2022-09-13T19:25:36;8.23;;;7.35;;
69951;SDS011;60406;48.408;13.392;2022-09-13T19:30:37;10.32;;;6.50;;
69951;SDS011;60406;48.408;13.392;2022-09-13T19:35:38;15.35;;;7.93;;
69951;SDS011;60406;48.408;13.392;2022-09-13T19:40:38;10.10;;;7.85;;
69951;SDS011;60406;48.408;13.392;2022-09-13T19:45:39;10.25;;;7.32;;
69951;SDS011;60406;48.408;13.392;2022-09-13T19:50:40;10.00;;;8.55;;
69951;SDS011;60406;48.408;13.392;2022-09-13T19:55:44;13.52;;;9.50;;
69951;SDS011;60406;48.408;13.392;2022-09-13T20:00:45;10.48;;;8.35;;
69951;SDS011;60406;48.408;13.392;2022-09-13T20:05:46;8.45;;;7.60;;
69951;SDS011;60406;48.408;13.392;2022-09-13T20:10:47;9.65;;;7.40;;
69951;SDS011;60406;48.408;13.392;2022-09-13T20:15:48;9.43;;;8.10;;
69951;SDS011;60406;48.408;13.392;2022-09-13T20:20:50;12.18;;;7.93;;
69951;SDS011;60406;48.408;13.392;2022-09-13T20:25:51;11.32;;;7.97;;
69951;SDS011;60406;48.408;13.392;2022-09-13T20:30:52;9.75;;;8.38;;
69951;SDS011;60406;48.408;13.392;2022-09-13T20:36:01;10.43;;;8.55;;
69951;SDS011;60406;48.408;13.392;2022-09-13T20:41:07;12.35;;;9.40;;
69951;SDS011;60406;48.408;13.392;2022-09-13T20:46:10;10.20;;;8.95;;
69951;SDS011;60406;48.408;13.392;2022-09-13T20:51:13;12.13;;;8.30;;
69951;SDS011;60406;48.408;13.392;2022-09-13T20:56:16;10.83;;;9.67;;
69951;SDS011;60406;48.408;13.392;2022-09-13T21:01:17;10.98;;;8.38;;
69951;SDS011;60406;48.408;13.392;2022-09-13T21:06:21;20.65;;;14.93;;
69951;SDS011;60406;48.408;13.392;2022-09-13T21:11:25;83.80;;;54.38;;
69951;SDS011;60406;48.408;13.392;2022-09-13T21:16:34;11.27;;;10.10;;
69951;SDS011;60406;48.408;13.392;2022-09-13T21:21:37;12.57;;;9.50;;
69951;SDS011;60406;48.408;13.392;2022-09-13T21:26:39;15.88;;;9.15;;
69951;SDS011;60406;48.408;13.392;2022-09-13T21:31:40;13.27;;;9.18;;
69951;SDS011;60406;48.408;13.392;2022-09-13T21:36:41;12.95;;;9.40;;
69951;SDS011;60406;48.408;13.392;2022-09-13T21:41:43;10.57;;;9.38;;
69951;SDS011;60406;48.408;13.392;2022-09-13T21:46:43;18.20;;;10.63;;
69951;SDS011;60406;48.408;13.392;2022-09-13T21:51:45;11.90;;;10.65;;
69951;SDS011;60406;48.408;13.392;2022-09-13T21:56:50;13.60;;;10.45;;
69951;SDS011;60406;48.408;13.392;2022-09-13T22:01:52;12.68;;;11.32;;
69951;SDS011;60406;48.408;13.392;2022-09-13T22:06:53;14.55;;;10.55;;
69951;SDS011;60406;48.408;13.392;2022-09-13T22:11:54;11.75;;;10.38;;
69951;SDS011;60406;48.408;13.392;2022-09-13T22:16:56;11.20;;;9.60;;
69951;SDS011;60406;48.408;13.392;2022-09-13T22:21:58;13.20;;;11.52;;
69951;SDS011;60406;48.408;13.392;2022-09-13T22:26:59;15.98;;;11.35;;
69951;SDS011;60406;48.408;13.392;2022-09-13T22:32:00;15.70;;;10.95;;
69951;SDS011;60406;48.408;13.392;2022-09-13T22:37:01;12.57;;;10.98;;
69951;SDS011;60406;48.408;13.392;2022-09-13T22:42:02;24.65;;;11.63;;
69951;SDS011;60406;48.408;13.392;2022-09-13T22:47:03;13.95;;;10.98;;
69951;SDS011;60406;48.408;13.392;2022-09-13T22:52:03;12.38;;;10.80;;
69951;SDS011;60406;48.408;13.392;2022-09-13T22:57:04;13.93;;;11.07;;
69951;SDS011;60406;48.408;13.392;2022-09-13T23:02:05;14.55;;;11.40;;
69951;SDS011;60406;48.408;13.392;2022-09-13T23:07:06;12.02;;;10.82;;
69951;SDS011;60406;48.408;13.392;2022-09-13T23:12:07;13.90;;;11.57;;
69951;SDS011;60406;48.408;13.392;2022-09-13T23:17:08;18.55;;;10.85;;
69951;SDS011;60406;48.408;13.392;2022-09-13T23:22:09;16.38;;;10.32;;
69951;SDS011;60406;48.408;13.392;2022-09-13T23:27:09;15.93;;;9.45;;
69951;SDS011;60406;48.408;13.392;2022-09-13T23:32:10;12.45;;;11.20;;
69951;SDS011;60406;48.408;13.392;2022-09-13T23:37:11;14.65;;;11.02;;
69951;SDS011;60406;48.408;13.392;2022-09-13T23:42:12;14.77;;;11.13;;
69951;SDS011;60406;48.408;13.392;2022-09-13T23:47:13;12.88;;;11.55;;
69951;SDS011;60406;48.408;13.392;2022-09-13T23:52:14;12.15;;;10.88;;
69951;SDS011;60406;48.408;13.392;2022-09-13T23:57:15;13.80;;;11.82;;
